sensor_id;sensor_type;location;lat;lon;timestamp;P1;durP1;ratioP1;P2;durP2;ratioP2
2011;SDS011;1009;51.436;6.972;2023-08-24T00:01:10;4.00;;;3.60;;
2011;SDS011;1009;51.436;6.972;2023-08-24T00:03:37;5.37;;;3.50;;
2011;SDS011;1009;51.436;6.972;2023-08-24T00:06:04;6.50;;;3.73;;
2011;SDS011;1009;51.436;6.972;2023-08-24T00:08:31;6.03;;;3.47;;
2011;SDS011;1009;51.436;6.972;2023-08-24T00:10:57;3.40;;;2.93;;
2011;SDS011;1009;51.436;6.972;2023-08-24T00:13:26;6.73;;;4.13;;
2011;SDS011;1009;51.436;6.972;2023-08-24T00:15:53;6.10;;;5.50;;
2011;SDS011;1009;51.436;6.972;2023-08-24T00:18:20;7.70;;;4.50;;
2011;SDS011;1009;51.436;6.972;2023-08-24T00:20:47;5.70;;;4.13;;
2011;SDS011;1009;51.436;6.972;2023-08-24T00:23:14;7.03;;;4.80;;
2011;SDS011;1009;51.436;6.972;2023-08-24T00:25:41;6.70;;;3.93;;
2011;SDS011;1009;51.436;6.972;2023-08-24T00:28:07;4.03;;;3.60;;
2011;SDS011;1009;51.436;6.972;2023-08-24T00:30:36;5.30;;;3.57;;
2011;SDS011;1009;51.436;6.972;2023-08-24T00:33:03;4.70;;;3.67;;
2011;SDS011;1009;51.436;6.972;2023-08-24T00:35:30;5.90;;;3.40;;
2011;SDS011;1009;51.436;6.972;2023-08-24T00:37:57;5.30;;;3.40;;
2011;SDS011;1009;51.436;6.972;2023-08-24T00:40:23;6.90;;;4.10;;
2011;SDS011;1009;51.436;6.972;2023-08-24T00:42:51;6.27;;;4.13;;
2011;SDS011;1009;51.436;6.972;2023-08-24T00:45:18;4.87;;;3.80;;
2011;SDS011;1009;51.436;6.972;2023-08-24T00:47:47;5.57;;;3.50;;
2011;SDS011;1009;51.436;6.972;2023-08-24T00:50:14;4.53;;;3.77;;
2011;SDS011;1009;51.436;6.972;2023-08-24T00:52:43;6.97;;;4.33;;
2011;SDS011;1009;51.436;6.972;2023-08-24T00:55:10;6.17;;;3.37;;
2011;SDS011;1009;51.436;6.972;2023-08-24T00:57:38;4.73;;;3.70;;
2011;SDS011;1009;51.436;6.972;2023-08-24T01:00:07;6.83;;;3.90;;
2011;SDS011;1009;51.436;6.972;2023-08-24T01:02:35;7.30;;;3.53;;
2011;SDS011;1009;51.436;6.972;2023-08-24T01:05:04;6.07;;;4.17;;
2011;SDS011;1009;51.436;6.972;2023-08-24T01:07:31;5.50;;;4.00;;
2011;SDS011;1009;51.436;6.972;2023-08-24T01:09:59;5.60;;;4.30;;
2011;SDS011;1009;51.436;6.972;2023-08-24T01:12:28;5.10;;;4.53;;
2011;SDS011;1009;51.436;6.972;2023-08-24T01:15:07;6.00;;;3.93;;
2011;SDS011;1009;51.436;6.972;2023-08-24T01:17:39;7.00;;;4.40;;
2011;SDS011;1009;51.436;6.972;2023-08-24T01:20:10;5.47;;;3.37;;
2011;SDS011;1009;51.436;6.972;2023-08-24T01:22:41;9.07;;;4.70;;
2011;SDS011;1009;51.436;6.972;2023-08-24T01:25:15;5.47;;;4.50;;
2011;SDS011;1009;51.436;6.972;2023-08-24T01:27:49;5.67;;;3.90;;
2011;SDS011;1009;51.436;6.972;2023-08-24T01:30:17;4.80;;;3.47;;
2011;SDS011;1009;51.436;6.972;2023-08-24T01:32:44;5.17;;;3.80;;
2011;SDS011;1009;51.436;6.972;2023-08-24T01:35:11;6.07;;;3.43;;
2011;SDS011;1009;51.436;6.972;2023-08-24T01:37:38;6.40;;;3.80;;
2011;SDS011;1009;51.436;6.972;2023-08-24T01:40:06;6.93;;;4.43;;
2011;SDS011;1009;51.436;6.972;2023-08-24T01:42:39;4.00;;;3.57;;
2011;SDS011;1009;51.436;6.972;2023-08-24T01:45:11;6.40;;;4.23;;
2011;SDS011;1009;51.436;6.972;2023-08-24T01:47:39;5.23;;;4.30;;
2011;SDS011;1009;51.436;6.972;2023-08-24T01:50:10;9.70;;;3.90;;
2011;SDS011;1009;51.436;6.972;2023-08-24T01:52:37;4.90;;;3.80;;
2011;SDS011;1009;51.436;6.972;2023-08-24T01:55:05;5.13;;;4.23;;
2011;SDS011;1009;51.436;6.972;2023-08-24T01:57:32;5.20;;;3.63;;
2011;SDS011;1009;51.436;6.972;2023-08-24T01:59:58;5.57;;;4.10;;
2011;SDS011;1009;51.436;6.972;2023-08-24T02:02:27;6.27;;;4.43;;
2011;SDS011;1009;51.436;6.972;2023-08-24T02:04:53;6.00;;;5.40;;
2011;SDS011;1009;51.436;6.972;2023-08-24T02:07:20;7.23;;;4.33;;
2011;SDS011;1009;51.436;6.972;2023-08-24T02:09:47;4.77;;;3.77;;
2011;SDS011;1009;51.436;6.972;2023-08-24T02:12:14;6.33;;;4.30;;
2011;SDS011;1009;51.436;6.972;2023-08-24T02:14:40;7.87;;;4.87;;
2011;SDS011;1009;51.436;6.972;2023-08-24T02:17:07;5.27;;;4.67;;
2011;SDS011;1009;51.436;6.972;2023-08-24T02:19:36;7.20;;;3.97;;
2011;SDS011;1009;51.436;6.972;2023-08-24T02:22:02;6.40;;;4.37;;
2011;SDS011;1009;51.436;6.972;2023-08-24T02:24:29;8.70;;;4.47;;
2011;SDS011;1009;51.436;6.972;2023-08-24T02:26:56;5.93;;;4.80;;
2011;SDS011;1009;51.436;6.972;2023-08-24T02:29:22;5.50;;;4.50;;
2011;SDS011;1009;51.436;6.972;2023-08-24T02:31:49;5.40;;;3.93;;
2011;SDS011;1009;51.436;6.972;2023-08-24T02:34:16;5.47;;;4.43;;
2011;SDS011;1009;51.436;6.972;2023-08-24T02:36:45;5.30;;;4.27;;
2011;SDS011;1009;51.436;6.972;2023-08-24T02:39:11;6.20;;;4.10;;
2011;SDS011;1009;51.436;6.972;2023-08-24T02:41:38;4.87;;;4.20;;
2011;SDS011;1009;51.436;6.972;2023-08-24T02:44:05;5.80;;;4.10;;
2011;SDS011;1009;51.436;6.972;2023-08-24T02:46:32;8.20;;;4.20;;
2011;SDS011;1009;51.436;6.972;2023-08-24T02:48:58;4.43;;;3.70;;
2011;SDS011;1009;51.436;6.972;2023-08-24T02:51:25;5.37;;;4.50;;
2011;SDS011;1009;51.436;6.972;2023-08-24T02:53:53;6.20;;;4.50;;
2011;SDS011;1009;51.436;6.972;2023-08-24T02:56:20;6.50;;;4.20;;
2011;SDS011;1009;51.436;6.972;2023-08-24T02:58:47;4.83;;;4.17;;
2011;SDS011;1009;51.436;6.972;2023-08-24T03:01:13;5.50;;;3.73;;
2011;SDS011;1009;51.436;6.972;2023-08-24T03:03:40;5.13;;;3.97;;
2011;SDS011;1009;51.436;6.972;2023-08-24T03:06:07;4.20;;;3.80;;
2011;SDS011;1009;51.436;6.972;2023-08-24T03:08:34;5.43;;;4.73;;
2011;SDS011;1009;51.436;6.972;2023-08-24T03:11:03;6.50;;;4.17;;
2011;SDS011;1009;51.436;6.972;2023-08-24T03:13:30;6.07;;;4.77;;
2011;SDS011;1009;51.436;6.972;2023-08-24T03:15:57;7.83;;;4.70;;
2011;SDS011;1009;51.436;6.972;2023-08-24T03:18:28;6.57;;;3.77;;
2011;SDS011;1009;51.436;6.972;2023-08-24T03:20:55;6.93;;;3.70;;
2011;SDS011;1009;51.436;6.972;2023-08-24T03:23:22;5.27;;;3.90;;
2011;SDS011;1009;51.436;6.972;2023-08-24T03:25:49;6.30;;;4.50;;
2011;SDS011;1009;51.436;6.972;2023-08-24T03:28:17;8.77;;;4.63;;
2011;SDS011;1009;51.436;6.972;2023-08-24T03:30:47;4.60;;;3.93;;
2011;SDS011;1009;51.436;6.972;2023-08-24T03:33:16;5.40;;;4.07;;
2011;SDS011;1009;51.436;6.972;2023-08-24T03:35:44;7.63;;;4.97;;
2011;SDS011;1009;51.436;6.972;2023-08-24T03:38:11;8.63;;;4.00;;
2011;SDS011;1009;51.436;6.972;2023-08-24T03:40:38;5.00;;;4.27;;
2011;SDS011;1009;51.436;6.972;2023-08-24T03:43:04;6.13;;;4.70;;
2011;SDS011;1009;51.436;6.972;2023-08-24T03:45:33;5.67;;;4.53;;
2011;SDS011;1009;51.436;6.972;2023-08-24T03:47:59;6.13;;;3.90;;
2011;SDS011;1009;51.436;6.972;2023-08-24T03:50:26;8.10;;;4.60;;
2011;SDS011;1009;51.436;6.972;2023-08-24T03:52:53;5.10;;;4.30;;
2011;SDS011;1009;51.436;6.972;2023-08-24T03:55:20;8.23;;;4.57;;
2011;SDS011;1009;51.436;6.972;2023-08-24T03:57:48;8.60;;;3.83;;
2011;SDS011;1009;51.436;6.972;2023-08-24T04:00:14;7.33;;;4.47;;
2011;SDS011;1009;51.436;6.972;2023-08-24T04:02:43;6.07;;;4.20;;
2011;SDS011;1009;51.436;6.972;2023-08-24T04:05:10;8.07;;;4.00;;
2011;SDS011;1009;51.436;6.972;2023-08-24T04:07:37;6.40;;;3.47;;
2011;SDS011;1009;51.436;6.972;2023-08-24T04:10:06;5.10;;;4.10;;
2011;SDS011;1009;51.436;6.972;2023-08-24T04:12:33;4.53;;;4.13;;
2011;SDS011;1009;51.436;6.972;2023-08-24T04:15:01;7.90;;;3.73;;
2011;SDS011;1009;51.436;6.972;2023-08-24T04:17:28;5.13;;;3.80;;
2011;SDS011;1009;51.436;6.972;2023-08-24T04:19:56;5.87;;;4.10;;
2011;SDS011;1009;51.436;6.972;2023-08-24T04:22:23;5.03;;;3.83;;
2011;SDS011;1009;51.436;6.972;2023-08-24T04:24:50;5.33;;;3.20;;
2011;SDS011;1009;51.436;6.972;2023-08-24T04:27:16;7.40;;;4.50;;
2011;SDS011;1009;51.436;6.972;2023-08-24T04:29:45;4.40;;;4.00;;
2011;SDS011;1009;51.436;6.972;2023-08-24T04:32:11;5.13;;;4.60;;
2011;SDS011;1009;51.436;6.972;2023-08-24T04:34:38;5.43;;;4.13;;
2011;SDS011;1009;51.436;6.972;2023-08-24T04:37:06;6.27;;;3.80;;
2011;SDS011;1009;51.436;6.972;2023-08-24T04:39:33;8.40;;;4.23;;
2011;SDS011;1009;51.436;6.972;2023-08-24T04:42:00;6.13;;;3.90;;
2011;SDS011;1009;51.436;6.972;2023-08-24T04:44:27;4.43;;;3.90;;
2011;SDS011;1009;51.436;6.972;2023-08-24T04:46:54;6.90;;;5.03;;
2011;SDS011;1009;51.436;6.972;2023-08-24T04:49:21;5.37;;;4.70;;
2011;SDS011;1009;51.436;6.972;2023-08-24T04:51:48;8.97;;;5.20;;
2011;SDS011;1009;51.436;6.972;2023-08-24T04:54:16;9.80;;;5.57;;
2011;SDS011;1009;51.436;6.972;2023-08-24T04:56:43;7.10;;;5.90;;
2011;SDS011;1009;51.436;6.972;2023-08-24T04:59:10;10.53;;;5.40;;
2011;SDS011;1009;51.436;6.972;2023-08-24T05:01:37;10.03;;;5.30;;
2011;SDS011;1009;51.436;6.972;2023-08-24T05:04:04;7.53;;;5.70;;
2011;SDS011;1009;51.436;6.972;2023-08-24T05:06:33;7.13;;;5.67;;
2011;SDS011;1009;51.436;6.972;2023-08-24T05:09:00;5.63;;;4.60;;
2011;SDS011;1009;51.436;6.972;2023-08-24T05:11:28;11.00;;;5.30;;
2011;SDS011;1009;51.436;6.972;2023-08-24T05:13:55;5.43;;;4.93;;
2011;SDS011;1009;51.436;6.972;2023-08-24T05:16:22;5.97;;;4.93;;
2011;SDS011;1009;51.436;6.972;2023-08-24T05:18:49;5.00;;;4.50;;
2011;SDS011;1009;51.436;6.972;2023-08-24T05:21:16;6.37;;;4.77;;
2011;SDS011;1009;51.436;6.972;2023-08-24T05:23:43;6.23;;;5.07;;
2011;SDS011;1009;51.436;6.972;2023-08-24T05:26:10;7.17;;;5.67;;
2011;SDS011;1009;51.436;6.972;2023-08-24T05:28:38;4.70;;;4.20;;
2011;SDS011;1009;51.436;6.972;2023-08-24T05:31:04;6.83;;;4.90;;
2011;SDS011;1009;51.436;6.972;2023-08-24T05:33:31;4.50;;;4.03;;
2011;SDS011;1009;51.436;6.972;2023-08-24T05:35:58;7.00;;;4.40;;
2011;SDS011;1009;51.436;6.972;2023-08-24T05:38:25;6.00;;;4.97;;
2011;SDS011;1009;51.436;6.972;2023-08-24T05:40:52;5.97;;;3.63;;
2011;SDS011;1009;51.436;6.972;2023-08-24T05:43:18;4.73;;;4.20;;
2011;SDS011;1009;51.436;6.972;2023-08-24T05:45:47;5.20;;;4.37;;
2011;SDS011;1009;51.436;6.972;2023-08-24T05:48:14;4.87;;;4.33;;
2011;SDS011;1009;51.436;6.972;2023-08-24T05:50:44;6.90;;;4.60;;
2011;SDS011;1009;51.436;6.972;2023-08-24T05:53:12;9.10;;;5.10;;
2011;SDS011;1009;51.436;6.972;2023-08-24T05:55:39;8.40;;;4.97;;
2011;SDS011;1009;51.436;6.972;2023-08-24T05:58:06;4.80;;;3.77;;
2011;SDS011;1009;51.436;6.972;2023-08-24T06:00:34;4.83;;;3.40;;
2011;SDS011;1009;51.436;6.972;2023-08-24T06:03:02;5.30;;;4.00;;
2011;SDS011;1009;51.436;6.972;2023-08-24T06:05:29;5.80;;;3.90;;
2011;SDS011;1009;51.436;6.972;2023-08-24T06:07:57;9.10;;;4.10;;
2011;SDS011;1009;51.436;6.972;2023-08-24T06:10:25;4.50;;;4.00;;
2011;SDS011;1009;51.436;6.972;2023-08-24T06:12:53;4.80;;;2.97;;
2011;SDS011;1009;51.436;6.972;2023-08-24T06:15:19;8.50;;;3.73;;
2011;SDS011;1009;51.436;6.972;2023-08-24T06:17:49;6.13;;;4.47;;
2011;SDS011;1009;51.436;6.972;2023-08-24T06:20:17;5.07;;;4.30;;
2011;SDS011;1009;51.436;6.972;2023-08-24T06:22:45;5.00;;;4.17;;
2011;SDS011;1009;51.436;6.972;2023-08-24T06:25:12;6.03;;;3.60;;
2011;SDS011;1009;51.436;6.972;2023-08-24T06:27:39;4.90;;;4.20;;
2011;SDS011;1009;51.436;6.972;2023-08-24T06:30:06;4.80;;;3.90;;
2011;SDS011;1009;51.436;6.972;2023-08-24T06:32:33;4.53;;;3.63;;
2011;SDS011;1009;51.436;6.972;2023-08-24T06:35:00;5.40;;;3.67;;
2011;SDS011;1009;51.436;6.972;2023-08-24T06:37:28;4.70;;;3.80;;
2011;SDS011;1009;51.436;6.972;2023-08-24T06:39:55;6.87;;;3.90;;
2011;SDS011;1009;51.436;6.972;2023-08-24T06:42:21;6.90;;;3.93;;
2011;SDS011;1009;51.436;6.972;2023-08-24T06:44:48;6.00;;;3.90;;
2011;SDS011;1009;51.436;6.972;2023-08-24T06:47:15;6.67;;;4.47;;
2011;SDS011;1009;51.436;6.972;2023-08-24T06:49:42;4.77;;;4.10;;
2011;SDS011;1009;51.436;6.972;2023-08-24T06:52:09;4.63;;;3.93;;
2011;SDS011;1009;51.436;6.972;2023-08-24T06:54:37;5.50;;;4.70;;
2011;SDS011;1009;51.436;6.972;2023-08-24T06:57:04;8.00;;;4.03;;
2011;SDS011;1009;51.436;6.972;2023-08-24T06:59:31;6.90;;;4.87;;
2011;SDS011;1009;51.436;6.972;2023-08-24T07:01:58;5.83;;;4.70;;
2011;SDS011;1009;51.436;6.972;2023-08-24T07:04:25;5.57;;;5.03;;
2011;SDS011;1009;51.436;6.972;2023-08-24T07:06:52;8.00;;;5.20;;
2011;SDS011;1009;51.436;6.972;2023-08-24T07:09:19;7.20;;;5.17;;
2011;SDS011;1009;51.436;6.972;2023-08-24T07:11:47;8.70;;;5.77;;
2011;SDS011;1009;51.436;6.972;2023-08-24T07:14:14;7.20;;;5.20;;
2011;SDS011;1009;51.436;6.972;2023-08-24T07:16:41;7.80;;;4.87;;
2011;SDS011;1009;51.436;6.972;2023-08-24T07:19:08;5.57;;;4.70;;
2011;SDS011;1009;51.436;6.972;2023-08-24T07:21:35;8.00;;;5.07;;
2011;SDS011;1009;51.436;6.972;2023-08-24T07:24:02;6.40;;;4.77;;
2011;SDS011;1009;51.436;6.972;2023-08-24T07:26:29;6.10;;;4.87;;
2011;SDS011;1009;51.436;6.972;2023-08-24T07:28:57;6.07;;;4.43;;
2011;SDS011;1009;51.436;6.972;2023-08-24T07:31:24;6.70;;;5.10;;
2011;SDS011;1009;51.436;6.972;2023-08-24T07:33:51;6.63;;;4.80;;
2011;SDS011;1009;51.436;6.972;2023-08-24T07:36:18;8.50;;;4.50;;
2011;SDS011;1009;51.436;6.972;2023-08-24T07:38:45;6.77;;;4.90;;
2011;SDS011;1009;51.436;6.972;2023-08-24T07:41:12;6.20;;;4.80;;
2011;SDS011;1009;51.436;6.972;2023-08-24T07:43:39;5.33;;;3.97;;
2011;SDS011;1009;51.436;6.972;2023-08-24T07:46:07;5.30;;;3.97;;
2011;SDS011;1009;51.436;6.972;2023-08-24T07:48:34;5.43;;;4.30;;
2011;SDS011;1009;51.436;6.972;2023-08-24T07:51:00;6.27;;;4.30;;
2011;SDS011;1009;51.436;6.972;2023-08-24T07:53:27;4.80;;;3.40;;
2011;SDS011;1009;51.436;6.972;2023-08-24T07:55:54;7.47;;;3.70;;
2011;SDS011;1009;51.436;6.972;2023-08-24T07:58:24;6.53;;;4.50;;
2011;SDS011;1009;51.436;6.972;2023-08-24T08:00:51;10.33;;;3.20;;
2011;SDS011;1009;51.436;6.972;2023-08-24T08:03:20;5.83;;;3.80;;
2011;SDS011;1009;51.436;6.972;2023-08-24T08:05:46;4.73;;;3.10;;
2011;SDS011;1009;51.436;6.972;2023-08-24T08:08:13;4.67;;;3.07;;
2011;SDS011;1009;51.436;6.972;2023-08-24T08:10:40;5.57;;;3.17;;
2011;SDS011;1009;51.436;6.972;2023-08-24T08:13:08;4.70;;;3.13;;
2011;SDS011;1009;51.436;6.972;2023-08-24T08:15:35;4.90;;;3.17;;
2011;SDS011;1009;51.436;6.972;2023-08-24T08:18:04;4.57;;;3.53;;
2011;SDS011;1009;51.436;6.972;2023-08-24T08:20:32;3.70;;;3.00;;
2011;SDS011;1009;51.436;6.972;2023-08-24T08:22:59;3.57;;;2.93;;
2011;SDS011;1009;51.436;6.972;2023-08-24T08:25:25;3.77;;;2.50;;
2011;SDS011;1009;51.436;6.972;2023-08-24T08:27:53;3.80;;;2.70;;
2011;SDS011;1009;51.436;6.972;2023-08-24T08:30:20;4.53;;;3.43;;
2011;SDS011;1009;51.436;6.972;2023-08-24T08:32:46;4.03;;;2.80;;
2011;SDS011;1009;51.436;6.972;2023-08-24T08:35:13;3.27;;;2.90;;
2011;SDS011;1009;51.436;6.972;2023-08-24T08:37:41;4.50;;;2.67;;
2011;SDS011;1009;51.436;6.972;2023-08-24T08:40:09;4.77;;;2.83;;
2011;SDS011;1009;51.436;6.972;2023-08-24T08:42:37;3.17;;;2.43;;
2011;SDS011;1009;51.436;6.972;2023-08-24T08:45:08;3.20;;;2.10;;
2011;SDS011;1009;51.436;6.972;2023-08-24T08:47:35;3.43;;;2.80;;
2011;SDS011;1009;51.436;6.972;2023-08-24T08:50:03;3.00;;;2.43;;
2011;SDS011;1009;51.436;6.972;2023-08-24T08:52:31;4.30;;;2.33;;
2011;SDS011;1009;51.436;6.972;2023-08-24T08:55:00;2.47;;;2.27;;
2011;SDS011;1009;51.436;6.972;2023-08-24T08:57:31;2.53;;;2.27;;
2011;SDS011;1009;51.436;6.972;2023-08-24T08:59:58;2.07;;;1.87;;
2011;SDS011;1009;51.436;6.972;2023-08-24T09:02:25;11.40;;;2.10;;
2011;SDS011;1009;51.436;6.972;2023-08-24T09:04:52;3.13;;;2.47;;
2011;SDS011;1009;51.436;6.972;2023-08-24T09:07:19;3.30;;;2.60;;
2011;SDS011;1009;51.436;6.972;2023-08-24T09:09:47;2.70;;;2.17;;
2011;SDS011;1009;51.436;6.972;2023-08-24T09:12:19;3.73;;;2.37;;
2011;SDS011;1009;51.436;6.972;2023-08-24T09:14:46;2.70;;;2.43;;
2011;SDS011;1009;51.436;6.972;2023-08-24T09:17:19;3.73;;;3.00;;
2011;SDS011;1009;51.436;6.972;2023-08-24T09:19:46;3.50;;;2.67;;
2011;SDS011;1009;51.436;6.972;2023-08-24T09:22:16;2.63;;;2.20;;
2011;SDS011;1009;51.436;6.972;2023-08-24T09:24:43;4.03;;;2.63;;
2011;SDS011;1009;51.436;6.972;2023-08-24T09:27:14;5.40;;;2.20;;
2011;SDS011;1009;51.436;6.972;2023-08-24T09:29:43;3.10;;;2.70;;
2011;SDS011;1009;51.436;6.972;2023-08-24T09:32:15;3.60;;;2.47;;
2011;SDS011;1009;51.436;6.972;2023-08-24T09:34:42;2.50;;;2.00;;
2011;SDS011;1009;51.436;6.972;2023-08-24T09:37:12;2.30;;;2.10;;
2011;SDS011;1009;51.436;6.972;2023-08-24T09:39:40;4.80;;;2.93;;
2011;SDS011;1009;51.436;6.972;2023-08-24T09:42:07;4.03;;;2.70;;
2011;SDS011;1009;51.436;6.972;2023-08-24T09:44:33;2.63;;;2.40;;
2011;SDS011;1009;51.436;6.972;2023-08-24T09:47:01;2.53;;;2.30;;
2011;SDS011;1009;51.436;6.972;2023-08-24T09:49:29;2.20;;;1.90;;
2011;SDS011;1009;51.436;6.972;2023-08-24T09:51:56;3.00;;;2.50;;
2011;SDS011;1009;51.436;6.972;2023-08-24T09:54:25;5.43;;;3.70;;
2011;SDS011;1009;51.436;6.972;2023-08-24T09:56:53;2.57;;;2.37;;
2011;SDS011;1009;51.436;6.972;2023-08-24T09:59:21;3.37;;;2.80;;
2011;SDS011;1009;51.436;6.972;2023-08-24T10:01:50;4.93;;;2.50;;
2011;SDS011;1009;51.436;6.972;2023-08-24T10:04:22;4.93;;;2.77;;
2011;SDS011;1009;51.436;6.972;2023-08-24T10:06:51;5.83;;;2.70;;
2011;SDS011;1009;51.436;6.972;2023-08-24T10:09:22;4.70;;;2.83;;
2011;SDS011;1009;51.436;6.972;2023-08-24T10:11:55;3.10;;;2.37;;
2011;SDS011;1009;51.436;6.972;2023-08-24T10:14:26;4.53;;;2.40;;
2011;SDS011;1009;51.436;6.972;2023-08-24T10:16:57;2.90;;;2.27;;
2011;SDS011;1009;51.436;6.972;2023-08-24T10:19:26;4.20;;;2.23;;
2011;SDS011;1009;51.436;6.972;2023-08-24T10:21:54;4.30;;;2.50;;
2011;SDS011;1009;51.436;6.972;2023-08-24T10:24:23;3.00;;;2.13;;
2011;SDS011;1009;51.436;6.972;2023-08-24T10:26:50;2.50;;;2.30;;
2011;SDS011;1009;51.436;6.972;2023-08-24T10:29:17;4.40;;;2.70;;
2011;SDS011;1009;51.436;6.972;2023-08-24T10:31:45;3.40;;;2.63;;
2011;SDS011;1009;51.436;6.972;2023-08-24T10:34:12;3.83;;;2.73;;
2011;SDS011;1009;51.436;6.972;2023-08-24T10:36:40;5.40;;;2.53;;
2011;SDS011;1009;51.436;6.972;2023-08-24T10:39:07;4.00;;;2.20;;
2011;SDS011;1009;51.436;6.972;2023-08-24T10:41:47;2.80;;;2.60;;
2011;SDS011;1009;51.436;6.972;2023-08-24T10:44:21;2.57;;;2.20;;
2011;SDS011;1009;51.436;6.972;2023-08-24T10:47:05;2.70;;;2.23;;
2011;SDS011;1009;51.436;6.972;2023-08-24T10:49:39;3.13;;;2.17;;
2011;SDS011;1009;51.436;6.972;2023-08-24T10:52:18;2.30;;;1.73;;
2011;SDS011;1009;51.436;6.972;2023-08-24T10:54:46;3.67;;;2.30;;
2011;SDS011;1009;51.436;6.972;2023-08-24T10:57:21;3.03;;;2.13;;
2011;SDS011;1009;51.436;6.972;2023-08-24T11:02:42;3.50;;;2.40;;
2011;SDS011;1009;51.436;6.972;2023-08-24T11:05:17;5.63;;;2.43;;
2011;SDS011;1009;51.436;6.972;2023-08-24T11:07:48;3.07;;;2.33;;
2011;SDS011;1009;51.436;6.972;2023-08-24T11:10:19;3.03;;;2.33;;
2011;SDS011;1009;51.436;6.972;2023-08-24T11:15:37;2.63;;;2.37;;
2011;SDS011;1009;51.436;6.972;2023-08-24T11:18:14;2.77;;;2.30;;
2011;SDS011;1009;51.436;6.972;2023-08-24T11:20:52;4.33;;;2.70;;
2011;SDS011;1009;51.436;6.972;2023-08-24T11:23:22;3.30;;;2.20;;
2011;SDS011;1009;51.436;6.972;2023-08-24T11:25:50;2.40;;;2.20;;
2011;SDS011;1009;51.436;6.972;2023-08-24T11:28:20;2.73;;;2.30;;
2011;SDS011;1009;51.436;6.972;2023-08-24T11:30:47;3.57;;;2.20;;
2011;SDS011;1009;51.436;6.972;2023-08-24T11:33:14;7.03;;;2.57;;
2011;SDS011;1009;51.436;6.972;2023-08-24T11:35:41;3.07;;;2.03;;
2011;SDS011;1009;51.436;6.972;2023-08-24T11:38:09;4.13;;;2.53;;
2011;SDS011;1009;51.436;6.972;2023-08-24T11:40:37;4.47;;;2.27;;
2011;SDS011;1009;51.436;6.972;2023-08-24T11:43:05;2.80;;;2.20;;
2011;SDS011;1009;51.436;6.972;2023-08-24T11:45:32;2.87;;;2.57;;
2011;SDS011;1009;51.436;6.972;2023-08-24T11:48:01;3.00;;;1.93;;
2011;SDS011;1009;51.436;6.972;2023-08-24T11:50:29;6.67;;;2.73;;
2011;SDS011;1009;51.436;6.972;2023-08-24T11:52:56;4.27;;;2.97;;
2011;SDS011;1009;51.436;6.972;2023-08-24T11:55:24;2.90;;;2.10;;
2011;SDS011;1009;51.436;6.972;2023-08-24T11:57:52;3.17;;;2.40;;
2011;SDS011;1009;51.436;6.972;2023-08-24T12:00:20;4.03;;;2.80;;
2011;SDS011;1009;51.436;6.972;2023-08-24T12:02:48;4.30;;;3.20;;
2011;SDS011;1009;51.436;6.972;2023-08-24T12:05:22;2.80;;;2.37;;
2011;SDS011;1009;51.436;6.972;2023-08-24T12:07:51;6.60;;;2.67;;
2011;SDS011;1009;51.436;6.972;2023-08-24T12:10:18;4.67;;;2.80;;
2011;SDS011;1009;51.436;6.972;2023-08-24T12:12:46;4.70;;;2.83;;
2011;SDS011;1009;51.436;6.972;2023-08-24T12:15:18;4.67;;;2.77;;
2011;SDS011;1009;51.436;6.972;2023-08-24T12:17:46;4.13;;;2.53;;
2011;SDS011;1009;51.436;6.972;2023-08-24T12:20:17;3.30;;;2.97;;
2011;SDS011;1009;51.436;6.972;2023-08-24T12:22:49;3.17;;;2.67;;
2011;SDS011;1009;51.436;6.972;2023-08-24T12:25:22;3.50;;;2.67;;
2011;SDS011;1009;51.436;6.972;2023-08-24T12:27:50;3.30;;;2.67;;
2011;SDS011;1009;51.436;6.972;2023-08-24T12:30:19;4.30;;;3.07;;
2011;SDS011;1009;51.436;6.972;2023-08-24T12:32:46;3.13;;;2.83;;
2011;SDS011;1009;51.436;6.972;2023-08-24T12:35:15;7.10;;;2.93;;
2011;SDS011;1009;51.436;6.972;2023-08-24T12:37:43;4.30;;;3.00;;
2011;SDS011;1009;51.436;6.972;2023-08-24T12:40:10;3.07;;;2.60;;
2011;SDS011;1009;51.436;6.972;2023-08-24T12:42:38;3.00;;;2.80;;
2011;SDS011;1009;51.436;6.972;2023-08-24T12:45:05;4.60;;;3.27;;
2011;SDS011;1009;51.436;6.972;2023-08-24T12:47:34;5.17;;;2.80;;
2011;SDS011;1009;51.436;6.972;2023-08-24T12:50:03;4.87;;;3.20;;
2011;SDS011;1009;51.436;6.972;2023-08-24T12:52:32;3.63;;;3.03;;
2011;SDS011;1009;51.436;6.972;2023-08-24T12:54:59;5.17;;;3.13;;
2011;SDS011;1009;51.436;6.972;2023-08-24T12:57:25;3.00;;;2.23;;
2011;SDS011;1009;51.436;6.972;2023-08-24T12:59:52;5.57;;;3.30;;
2011;SDS011;1009;51.436;6.972;2023-08-24T13:02:19;4.33;;;2.27;;
2011;SDS011;1009;51.436;6.972;2023-08-24T13:04:47;3.70;;;3.03;;
2011;SDS011;1009;51.436;6.972;2023-08-24T13:07:14;3.30;;;2.80;;
2011;SDS011;1009;51.436;6.972;2023-08-24T13:09:41;3.80;;;2.90;;
2011;SDS011;1009;51.436;6.972;2023-08-24T13:12:08;4.50;;;3.17;;
2011;SDS011;1009;51.436;6.972;2023-08-24T13:14:35;4.03;;;2.57;;
2011;SDS011;1009;51.436;6.972;2023-08-24T13:17:01;3.60;;;3.30;;
2011;SDS011;1009;51.436;6.972;2023-08-24T13:19:29;4.43;;;2.73;;
2011;SDS011;1009;51.436;6.972;2023-08-24T13:21:57;3.70;;;2.70;;
2011;SDS011;1009;51.436;6.972;2023-08-24T13:24:23;3.10;;;2.40;;
2011;SDS011;1009;51.436;6.972;2023-08-24T13:26:50;2.90;;;2.47;;
2011;SDS011;1009;51.436;6.972;2023-08-24T13:29:17;3.37;;;2.60;;
2011;SDS011;1009;51.436;6.972;2023-08-24T13:31:43;3.17;;;2.50;;
2011;SDS011;1009;51.436;6.972;2023-08-24T13:34:10;4.23;;;3.00;;
2011;SDS011;1009;51.436;6.972;2023-08-24T13:36:37;3.63;;;2.47;;
2011;SDS011;1009;51.436;6.972;2023-08-24T13:39:05;6.60;;;2.97;;
2011;SDS011;1009;51.436;6.972;2023-08-24T13:41:31;4.43;;;3.30;;
2011;SDS011;1009;51.436;6.972;2023-08-24T13:43:58;4.87;;;3.53;;
2011;SDS011;1009;51.436;6.972;2023-08-24T13:46:25;3.73;;;3.07;;
2011;SDS011;1009;51.436;6.972;2023-08-24T13:48:51;4.73;;;3.00;;
2011;SDS011;1009;51.436;6.972;2023-08-24T13:51:18;5.00;;;3.33;;
2011;SDS011;1009;51.436;6.972;2023-08-24T13:53:45;7.47;;;3.53;;
2011;SDS011;1009;51.436;6.972;2023-08-24T13:56:15;5.00;;;2.63;;
2011;SDS011;1009;51.436;6.972;2023-08-24T13:58:41;4.50;;;2.57;;
2011;SDS011;1009;51.436;6.972;2023-08-24T14:01:09;3.43;;;2.27;;
2011;SDS011;1009;51.436;6.972;2023-08-24T14:03:37;4.07;;;3.10;;
2011;SDS011;1009;51.436;6.972;2023-08-24T14:06:04;4.33;;;2.80;;
2011;SDS011;1009;51.436;6.972;2023-08-24T14:08:31;4.03;;;2.47;;
2011;SDS011;1009;51.436;6.972;2023-08-24T14:10:58;4.70;;;2.30;;
2011;SDS011;1009;51.436;6.972;2023-08-24T14:13:26;3.40;;;3.03;;
2011;SDS011;1009;51.436;6.972;2023-08-24T14:15:53;4.47;;;2.73;;
2011;SDS011;1009;51.436;6.972;2023-08-24T14:18:21;5.57;;;2.90;;
2011;SDS011;1009;51.436;6.972;2023-08-24T14:20:47;6.60;;;3.33;;
2011;SDS011;1009;51.436;6.972;2023-08-24T14:23:14;4.43;;;3.50;;
2011;SDS011;1009;51.436;6.972;2023-08-24T14:25:41;4.30;;;3.77;;
2011;SDS011;1009;51.436;6.972;2023-08-24T14:28:07;4.90;;;3.63;;
2011;SDS011;1009;51.436;6.972;2023-08-24T14:30:35;4.00;;;2.97;;
2011;SDS011;1009;51.436;6.972;2023-08-24T14:33:02;5.10;;;2.80;;
2011;SDS011;1009;51.436;6.972;2023-08-24T14:35:29;4.67;;;3.50;;
2011;SDS011;1009;51.436;6.972;2023-08-24T14:37:57;4.80;;;2.30;;
2011;SDS011;1009;51.436;6.972;2023-08-24T14:40:24;4.43;;;4.03;;
2011;SDS011;1009;51.436;6.972;2023-08-24T14:42:50;6.00;;;3.40;;
2011;SDS011;1009;51.436;6.972;2023-08-24T14:45:18;5.00;;;3.33;;
2011;SDS011;1009;51.436;6.972;2023-08-24T14:47:46;6.17;;;4.70;;
2011;SDS011;1009;51.436;6.972;2023-08-24T14:50:13;5.60;;;3.20;;
2011;SDS011;1009;51.436;6.972;2023-08-24T14:52:40;6.60;;;3.37;;
2011;SDS011;1009;51.436;6.972;2023-08-24T14:55:07;5.93;;;3.60;;
2011;SDS011;1009;51.436;6.972;2023-08-24T14:57:34;6.97;;;4.27;;
2011;SDS011;1009;51.436;6.972;2023-08-24T15:00:01;5.27;;;3.80;;
2011;SDS011;1009;51.436;6.972;2023-08-24T15:02:30;5.90;;;4.60;;
2011;SDS011;1009;51.436;6.972;2023-08-24T15:04:58;5.60;;;3.50;;
2011;SDS011;1009;51.436;6.972;2023-08-24T15:07:25;6.87;;;4.77;;
2011;SDS011;1009;51.436;6.972;2023-08-24T15:09:52;5.90;;;4.17;;
2011;SDS011;1009;51.436;6.972;2023-08-24T15:12:19;5.23;;;4.63;;
2011;SDS011;1009;51.436;6.972;2023-08-24T15:14:59;4.70;;;3.83;;
2011;SDS011;1009;51.436;6.972;2023-08-24T15:17:29;5.30;;;3.90;;
2011;SDS011;1009;51.436;6.972;2023-08-24T15:19:58;5.50;;;3.60;;
2011;SDS011;1009;51.436;6.972;2023-08-24T15:22:24;10.03;;;4.27;;
2011;SDS011;1009;51.436;6.972;2023-08-24T15:24:53;5.97;;;3.23;;